TimeEDT,TemperatureF,Dew PointF,Humidity,Sea Level PressureIn,VisibilityMPH,Wind Direction,Wind SpeedMPH,Gust SpeedMPH,PrecipitationIn,Events,Conditions,WindDirDegrees,DateUTC
12:58 AM,60.3,56.8,88,30.14,10.0,Calm,Calm,-,N/A,,Partly Cloudy,0,2013-08-05 04:58:00
1:58 AM,60.4,56.3,86,30.13,10.0,West,2.3,-,N/A,,Scattered Clouds,280,2013-08-05 05:58:00
2:38 AM,60.8,55.4,82,30.13,8.0,Calm,Calm,-,N/A,,Scattered Clouds,0,2013-08-05 06:38:00
2:48 AM,59.0,55.4,88,30.13,10.0,Calm,Calm,-,N/A,,Mostly Cloudy,0,2013-08-05 06:48:00
2:58 AM,59.2,55.9,89,30.13,10.0,Calm,Calm,-,N/A,,Scattered Clouds,0,2013-08-05 06:58:00
3:08 AM,59.0,55.4,88,30.13,4.0,Calm,Calm,-,N/A,,Partly Cloudy,0,2013-08-05 07:08:00
3:58 AM,58.8,55.6,89,30.13,10.0,Calm,Calm,-,N/A,,Mostly Cloudy,0,2013-08-05 07:58:00
4:58 AM,58.6,55.6,90,30.13,10.0,NE,2.3,-,N/A,,Mostly Cloudy,40,2013-08-05 08:58:00
5:38 AM,59.0,55.4,88,30.12,4.0,Calm,Calm,-,N/A,,Clear,0,2013-08-05 09:38:00
5:48 AM,59.0,55.4,88,30.12,10.0,Calm,Calm,-,N/A,,Clear,0,2013-08-05 09:48:00
5:58 AM,58.1,55.4,91,30.12,10.0,Calm,Calm,-,N/A,,Clear,0,2013-08-05 09:58:00
6:08 AM,57.2,55.4,94,30.12,8.0,West,1.2,-,N/A,,Clear,270,2013-08-05 10:08:00
6:18 AM,57.2,55.4,94,30.12,1.2,WSW,2.3,-,N/A,,Clear,240,2013-08-05 10:18:00
6:28 AM,57.2,55.4,94,30.13,7.0,West,2.3,-,N/A,Fog,Shallow Fog,260,2013-08-05 10:28:00
6:48 AM,55.4,53.6,94,30.13,1.8,Calm,Calm,-,N/A,,Clear,0,2013-08-05 10:48:00
6:58 AM,55.4,53.6,94,30.14,2.5,Calm,Calm,-,N/A,,Scattered Clouds,0,2013-08-05 10:58:00
7:08 AM,55.4,55.4,100,30.13,2.0,Calm,Calm,-,N/A,,Scattered Clouds,0,2013-08-05 11:08:00
7:18 AM,57.2,55.4,94,30.13,5.0,Calm,Calm,-,N/A,,Scattered Clouds,0,2013-08-05 11:18:00
7:58 AM,59.5,56.1,88,30.13,10.0,Calm,Calm,-,N/A,,Overcast,0,2013-08-05 11:58:00
8:58 AM,64.9,56.7,74,30.15,10.0,NE,4.6,-,N/A,,Clear,50,2013-08-05 12:58:00
9:58 AM,67.5,56.8,69,30.13,10.0,SSE,5.8,-,N/A,,Clear,160,2013-08-05 13:58:00
10:40 AM,69.8,57.2,64,30.13,10.0,Variable,2.3,-,N/A,,Clear,0,2013-08-05 14:40:00
10:49 AM,69.8,57.2,64,30.13,10.0,SSE,5.8,-,N/A,,Clear,160,2013-08-05 14:49:00
10:58 AM,70.3,57.7,64,30.12,10.0,SE,5.8,-,0.00,,Clear,140,2013-08-05 14:58:00
11:33 AM,71.6,59.0,64,30.12,10.0,SW,3.5,-,N/A,,Clear,220,2013-08-05 15:33:00
11:37 AM,73.4,57.2,57,30.11,10.0,SW,2.3,-,N/A,,Light Drizzle,230,2013-08-05 15:37:00
11:43 AM,73.4,57.2,57,30.11,10.0,Variable,5.8,-,N/A,,Clear,0,2013-08-05 15:43:00
11:47 AM,73.4,57.2,57,30.11,10.0,Variable,1.2,-,N/A,,Clear,0,2013-08-05 15:47:00
11:48 AM,73.4,57.2,57,30.11,10.0,Calm,Calm,-,N/A,,Clear,0,2013-08-05 15:48:00
11:58 AM,72.0,57.2,60,30.11,10.0,Variable,2.3,-,N/A,,Clear,0,2013-08-05 15:58:00
12:58 PM,74.1,55.4,52,30.10,10.0,NNW,2.3,-,N/A,,Partly Cloudy,340,2013-08-05 16:58:00
1:58 PM,74.1,55.0,51,30.08,10.0,WSW,6.9,-,N/A,,Mostly Cloudy,250,2013-08-05 17:58:00
2:58 PM,74.7,55.4,51,30.07,10.0,South,5.8,-,N/A,,Scattered Clouds,170,2013-08-05 18:58:00
3:58 PM,76.5,55.8,49,30.06,10.0,Variable,1.2,-,N/A,,Partly Cloudy,0,2013-08-05 19:58:00
4:58 PM,75.7,56.7,51,30.05,10.0,WSW,3.5,-,N/A,,Scattered Clouds,250,2013-08-05 20:58:00
5:58 PM,75.7,57.6,53,30.03,10.0,SE,8.1,-,N/A,,Scattered Clouds,130,2013-08-05 21:58:00
6:58 PM,74.3,55.8,52,30.01,10.0,SE,6.9,-,N/A,,Partly Cloudy,140,2013-08-05 22:58:00
7:58 PM,72.9,59.5,63,30.03,10.0,East,3.5,-,N/A,,Clear,100,2013-08-05 23:58:00
8:17 PM,71.6,60.8,69,30.01,10.0,East,4.6,-,N/A,,Clear,100,2013-08-06 00:17:00
8:26 PM,71.6,60.8,69,30.01,10.0,ESE,5.8,-,N/A,,Clear,110,2013-08-06 00:26:00
8:29 PM,71.6,60.8,69,30.01,10.0,ESE,4.6,-,N/A,Rain,Light Rain,110,2013-08-06 00:29:00
8:58 PM,69.8,63.3,80,30.02,9.0,Variable,2.3,-,0.00,Rain,Light Rain,0,2013-08-06 00:58:00
9:34 PM,68.0,62.6,83,30.02,10.0,East,3.5,-,N/A,,Scattered Clouds,100,2013-08-06 01:34:00
9:38 PM,68.0,62.6,83,30.01,10.0,East,3.5,-,N/A,,Light Drizzle,80,2013-08-06 01:38:00
9:53 PM,68.0,62.6,83,30.00,10.0,East,3.5,-,N/A,,Partly Cloudy,80,2013-08-06 01:53:00
9:58 PM,68.0,62.6,83,30.00,10.0,East,4.6,-,0.02,,Partly Cloudy,90,2013-08-06 01:58:00
10:58 PM,67.5,62.1,83,30.01,10.0,East,3.5,-,N/A,,Mostly Cloudy,90,2013-08-06 02:58:00
11:58 PM,66.7,61.7,84,30.00,10.0,East,3.5,-,N/A,,Mostly Cloudy,80,2013-08-06 03:58:00